createdAt,value
2022-09-24T00:01:18.816Z,36.30
2022-09-24T00:03:50.130Z,38.92
2022-09-24T00:06:19.055Z,35.40
2022-09-24T00:08:45.928Z,37.17
2022-09-24T00:11:12.865Z,33.83
2022-09-24T00:13:39.248Z,36.22
2022-09-24T00:16:10.088Z,38.72
2022-09-24T00:21:11.873Z,37.28
2022-09-24T00:23:38.255Z,31.48
2022-09-24T00:26:23.302Z,34.38
2022-09-24T00:28:50.638Z,35.72
2022-09-24T00:31:17.343Z,35.45
2022-09-24T00:33:43.773Z,35.17
2022-09-24T00:36:10.132Z,35.75
2022-09-24T00:38:36.411Z,35.70
2022-09-24T00:41:03.203Z,34.83
2022-09-24T00:43:36.691Z,37.30
2022-09-24T00:46:19.741Z,37.42
2022-09-24T00:48:47.196Z,33.50
2022-09-24T00:51:14.653Z,33.78
2022-09-24T00:53:41.694Z,34.25
2022-09-24T00:56:09.332Z,36.17
2022-09-24T00:58:35.664Z,31.67
2022-09-24T01:01:04.552Z,35.80
2022-09-24T01:03:32.383Z,34.80
2022-09-24T01:05:58.801Z,34.03
2022-09-24T01:08:25.133Z,34.50
2022-09-24T01:11:09.745Z,32.80
2022-09-24T01:13:51.621Z,30.02
2022-09-24T01:16:36.465Z,28.75
2022-09-24T01:19:25.899Z,30.65
2022-09-24T01:21:55.244Z,28.23
2022-09-24T01:24:40.282Z,26.00
2022-09-24T01:27:10.238Z,29.50
2022-09-24T01:29:41.709Z,27.00
2022-09-24T01:32:13.504Z,29.58
2022-09-24T01:35:00.129Z,30.38
2022-09-24T01:37:28.315Z,27.75
2022-09-24T01:39:56.169Z,27.85
2022-09-24T01:42:23.423Z,28.38
2022-09-24T01:44:50.475Z,29.45
2022-09-24T01:47:28.863Z,32.85
2022-09-24T01:49:59.876Z,29.65
2022-09-24T01:52:30.016Z,29.95
2022-09-24T01:54:57.508Z,32.20
2022-09-24T01:57:25.517Z,33.20
2022-09-24T02:00:02.015Z,33.75
2022-09-24T02:02:42.551Z,35.58
2022-09-24T02:05:12.739Z,38.58
2022-09-24T02:07:42.315Z,36.37
2022-09-24T02:10:14.512Z,37.30
2022-09-24T02:12:42.279Z,37.33
2022-09-24T02:15:14.950Z,39.75
2022-09-24T02:17:43.232Z,39.30
2022-09-24T02:20:12.587Z,41.15
2022-09-24T02:22:39.573Z,39.30
2022-09-24T02:25:06.631Z,39.47
2022-09-24T02:27:32.907Z,38.97
2022-09-24T02:30:00.281Z,42.03
2022-09-24T02:32:29.102Z,45.80
2022-09-24T02:34:57.693Z,42.90
2022-09-24T02:37:24.763Z,44.28
2022-09-24T02:39:51.290Z,40.92
2022-09-24T02:42:18.588Z,43.13
2022-09-24T02:44:44.991Z,48.65
2022-09-24T02:47:11.386Z,42.35
2022-09-24T02:49:37.745Z,42.50
2022-09-24T02:52:04.574Z,45.80
2022-09-24T02:54:31.155Z,45.95
2022-09-24T02:56:57.677Z,42.38
2022-09-24T02:59:24.017Z,44.45
2022-09-24T03:01:50.735Z,41.40
2022-09-24T03:04:17.601Z,43.35
2022-09-24T03:06:43.903Z,43.13
2022-09-24T03:09:11.652Z,43.63
2022-09-24T03:11:37.934Z,44.08
2022-09-24T03:14:04.347Z,41.88
2022-09-24T03:16:30.729Z,44.25
2022-09-24T03:18:57.148Z,45.22
2022-09-24T03:21:23.467Z,47.60
2022-09-24T03:23:49.904Z,51.90
2022-09-24T03:26:17.695Z,49.38
2022-09-24T03:28:44.227Z,50.15
2022-09-24T03:31:11.000Z,51.65
2022-09-24T03:33:41.750Z,56.85
2022-09-24T03:36:09.905Z,52.47
2022-09-24T03:38:37.365Z,59.10
2022-09-24T03:41:04.371Z,59.80
2022-09-24T03:43:31.282Z,52.90
2022-09-24T03:45:57.692Z,56.38
2022-09-24T03:48:24.806Z,59.85
2022-09-24T03:50:51.708Z,53.55
2022-09-24T03:53:18.331Z,56.42
2022-09-24T03:55:46.652Z,56.30
2022-09-24T03:58:13.577Z,64.18
2022-09-24T04:00:41.248Z,58.17
2022-09-24T04:03:07.997Z,62.70
2022-09-24T04:05:34.649Z,59.08
2022-09-24T04:08:01.264Z,63.63
2022-09-24T04:10:28.042Z,55.28
2022-09-24T04:12:54.347Z,56.90
2022-09-24T04:15:21.595Z,60.60
2022-09-24T04:17:51.681Z,70.47
2022-09-24T04:20:21.500Z,63.57
2022-09-24T04:22:50.356Z,60.10
2022-09-24T04:25:16.931Z,63.05
2022-09-24T04:27:45.987Z,66.70
2022-09-24T04:30:13.458Z,60.50
2022-09-24T04:32:42.514Z,62.88
2022-09-24T04:35:09.447Z,59.25
2022-09-24T04:37:36.009Z,61.25
2022-09-24T04:40:04.313Z,67.40
2022-09-24T04:42:30.765Z,63.63
2022-09-24T04:44:57.436Z,65.35
2022-09-24T04:47:26.470Z,69.93
2022-09-24T04:49:52.800Z,63.10
2022-09-24T04:52:19.525Z,57.15
2022-09-24T04:54:46.886Z,64.70
2022-09-24T04:57:14.152Z,67.22
2022-09-24T04:59:40.748Z,68.30
2022-09-24T05:02:09.679Z,64.53
2022-09-24T05:04:36.549Z,67.18
2022-09-24T05:07:03.302Z,60.35
2022-09-24T05:09:32.012Z,70.75
2022-09-24T05:11:58.713Z,79.78
2022-09-24T05:14:25.543Z,63.33
2022-09-24T05:16:51.895Z,83.45
2022-09-24T05:19:18.442Z,82.38
2022-09-24T05:21:45.038Z,81.43
2022-09-24T05:24:11.663Z,80.78
2022-09-24T05:26:56.795Z,79.93
2022-09-24T05:29:23.264Z,65.38
2022-09-24T05:31:49.978Z,71.90
2022-09-24T05:34:16.561Z,85.93
2022-09-24T05:36:45.573Z,79.30
2022-09-24T05:39:13.141Z,73.68
2022-09-24T05:41:39.894Z,62.85
2022-09-24T05:44:06.268Z,85.78
2022-09-24T05:46:35.533Z,76.80
2022-09-24T05:49:02.337Z,69.03
2022-09-24T05:51:28.664Z,62.75
2022-09-24T05:53:55.047Z,73.50
2022-09-24T05:56:21.609Z,71.05
2022-09-24T05:58:50.836Z,66.65
2022-09-24T06:01:17.219Z,76.75
2022-09-24T06:03:43.542Z,68.53
2022-09-24T06:06:09.853Z,63.90
2022-09-24T06:08:36.180Z,73.93
2022-09-24T06:11:05.264Z,58.42
2022-09-24T06:13:35.033Z,59.55
2022-09-24T06:16:05.560Z,65.78
2022-09-24T06:18:34.919Z,59.50
2022-09-24T06:21:05.663Z,80.53
2022-09-24T06:23:32.023Z,61.65
2022-09-24T06:25:58.643Z,59.53
2022-09-24T06:28:27.702Z,59.17
2022-09-24T06:30:54.378Z,60.50
2022-09-24T06:33:22.105Z,58.53
2022-09-24T06:35:48.511Z,62.38
2022-09-24T06:38:15.959Z,56.97
2022-09-24T06:40:43.254Z,72.20
2022-09-24T06:43:10.795Z,52.65
2022-09-24T06:45:37.636Z,72.40
2022-09-24T06:48:05.265Z,54.50
2022-09-24T06:50:32.656Z,55.55
2022-09-24T06:52:59.288Z,70.00
2022-09-24T06:55:26.103Z,52.53
2022-09-24T06:58:02.508Z,47.53
2022-09-24T07:00:28.932Z,60.20
2022-09-24T07:02:55.310Z,63.42
2022-09-24T07:05:21.700Z,48.95
2022-09-24T07:07:48.152Z,53.58
2022-09-24T07:10:15.081Z,51.83
2022-09-24T07:12:41.631Z,59.22
2022-09-24T07:15:08.922Z,41.50
2022-09-24T07:17:35.354Z,44.70
2022-09-24T07:20:02.388Z,43.55
2022-09-24T07:22:28.877Z,54.20
2022-09-24T07:24:55.391Z,51.45
2022-09-24T07:27:22.136Z,47.95
2022-09-24T07:29:48.889Z,47.25
2022-09-24T07:32:15.950Z,51.38
2022-09-24T07:34:42.424Z,57.50
2022-09-24T07:37:08.929Z,40.63
2022-09-24T07:39:35.444Z,52.10
2022-09-24T07:42:02.310Z,46.70
2022-09-24T07:44:29.393Z,46.42
2022-09-24T07:46:55.915Z,46.55
2022-09-24T07:49:23.074Z,46.83
2022-09-24T07:51:49.772Z,42.38
2022-09-24T07:54:17.441Z,44.63
2022-09-24T07:56:44.033Z,36.17
2022-09-24T07:59:11.303Z,30.85
2022-09-24T08:01:37.874Z,31.23
2022-09-24T08:04:04.744Z,33.00
2022-09-24T08:06:38.304Z,32.35
2022-09-24T08:09:05.781Z,35.28
2022-09-24T08:11:33.218Z,30.63
2022-09-24T08:14:00.580Z,27.85
2022-09-24T08:16:27.177Z,34.28
2022-09-24T08:18:54.300Z,30.08
2022-09-24T08:21:21.085Z,31.95
2022-09-24T08:23:47.976Z,31.33
2022-09-24T08:26:14.564Z,30.17
2022-09-24T08:28:42.033Z,25.73
2022-09-24T08:31:11.303Z,24.73
2022-09-24T08:33:38.362Z,24.65
2022-09-24T08:36:06.024Z,26.35
2022-09-24T08:38:32.719Z,22.20
2022-09-24T08:41:07.960Z,19.63
2022-09-24T08:43:34.408Z,20.45
2022-09-24T08:46:21.006Z,18.90
2022-09-24T08:48:51.416Z,22.02
2022-09-24T08:51:19.105Z,21.17
2022-09-24T08:54:04.424Z,17.58
2022-09-24T08:56:33.996Z,19.48
2022-09-24T08:59:01.641Z,20.58
2022-09-24T09:01:42.666Z,18.80
2022-09-24T09:04:31.124Z,17.25
2022-09-24T09:07:12.849Z,16.85
2022-09-24T09:09:52.092Z,18.13
2022-09-24T09:12:23.264Z,19.27
2022-09-24T09:14:54.382Z,14.38
2022-09-24T09:17:20.760Z,15.75
2022-09-24T09:19:53.944Z,13.50
2022-09-24T09:22:23.701Z,12.90
2022-09-24T09:24:53.903Z,11.55
2022-09-24T09:27:21.076Z,14.23
2022-09-24T09:29:52.014Z,9.18
2022-09-24T09:32:30.893Z,10.63
2022-09-24T09:34:58.893Z,9.57
2022-09-24T09:37:29.332Z,10.20
2022-09-24T09:40:14.469Z,9.15
2022-09-24T09:42:41.113Z,10.30
2022-09-24T09:45:16.473Z,7.88
2022-09-24T09:47:47.954Z,8.75
2022-09-24T09:50:26.441Z,8.88
2022-09-24T09:52:53.235Z,8.43
2022-09-24T09:55:21.100Z,8.07
2022-09-24T09:57:48.248Z,9.38
2022-09-24T10:00:26.644Z,7.78
2022-09-24T10:02:53.718Z,8.38
2022-09-24T10:05:27.006Z,9.60
2022-09-24T10:07:53.861Z,8.15
2022-09-24T10:10:23.944Z,7.35
2022-09-24T10:13:09.819Z,10.70
2022-09-24T10:15:45.254Z,8.65
2022-09-24T10:18:14.200Z,7.95
2022-09-24T10:20:45.762Z,9.15
2022-09-24T10:23:15.861Z,8.50
2022-09-24T10:25:51.154Z,8.27
2022-09-24T10:28:38.004Z,8.50
2022-09-24T10:31:11.882Z,8.65
2022-09-24T10:33:44.268Z,8.63
2022-09-24T10:36:19.641Z,10.50
2022-09-24T10:38:46.068Z,10.45
2022-09-24T10:41:15.957Z,10.77
2022-09-24T10:43:50.364Z,11.23
2022-09-24T10:46:16.811Z,11.32
2022-09-24T10:48:45.484Z,12.70
2022-09-24T10:51:29.436Z,12.35
2022-09-24T10:54:04.876Z,12.75
2022-09-24T10:56:43.616Z,11.75
2022-09-24T10:59:21.211Z,10.55
2022-09-24T11:01:56.885Z,15.50
2022-09-24T11:04:38.821Z,14.40
2022-09-24T11:07:24.051Z,16.10
2022-09-24T11:09:56.359Z,14.05
2022-09-24T11:12:30.268Z,11.10
2022-09-24T11:15:15.191Z,12.40
2022-09-24T11:18:01.859Z,11.10
2022-09-24T11:20:30.932Z,10.65
2022-09-24T11:23:00.262Z,8.55
2022-09-24T11:25:38.745Z,9.20
2022-09-24T11:28:24.065Z,15.57
2022-09-24T11:30:56.332Z,9.55
2022-09-24T11:33:28.641Z,7.15
2022-09-24T11:36:18.774Z,9.65
2022-09-24T11:38:48.002Z,7.22
2022-09-24T11:41:26.681Z,7.57
2022-09-24T11:43:55.914Z,11.18
2022-09-24T11:46:32.299Z,10.32
2022-09-24T11:48:58.707Z,11.73
2022-09-24T11:51:31.100Z,8.20
2022-09-24T11:53:57.624Z,9.52
2022-09-24T11:56:24.032Z,15.55
2022-09-24T11:58:52.876Z,8.90
2022-09-24T12:01:25.142Z,8.98
2022-09-24T12:04:04.492Z,13.93
2022-09-24T12:06:37.762Z,7.57
2022-09-24T12:09:13.012Z,5.07
2022-09-24T12:11:41.605Z,9.32
2022-09-24T12:14:15.070Z,13.32
2022-09-24T12:16:44.272Z,14.85
2022-09-24T12:19:28.387Z,11.48
2022-09-24T12:21:56.309Z,11.55
2022-09-24T12:24:25.951Z,8.25
2022-09-24T12:26:53.925Z,8.82
2022-09-24T12:29:52.058Z,14.30
2022-09-24T12:32:41.508Z,13.60
2022-09-24T12:35:13.057Z,13.00
2022-09-24T12:37:40.831Z,11.75
2022-09-24T12:40:26.059Z,9.50
2022-09-24T12:42:56.126Z,9.73
2022-09-24T12:45:22.941Z,10.47
2022-09-24T12:47:51.771Z,9.85
2022-09-24T12:50:22.731Z,10.35
2022-09-24T12:52:49.772Z,12.25
2022-09-24T12:55:24.363Z,10.27
2022-09-24T12:57:53.488Z,8.13
2022-09-24T13:00:32.313Z,9.10
2022-09-24T13:02:59.424Z,10.88
2022-09-24T13:05:28.401Z,8.85
2022-09-24T13:07:56.241Z,13.02
2022-09-24T13:10:27.840Z,10.07
2022-09-24T13:12:54.615Z,15.90
2022-09-24T13:15:35.122Z,9.40
2022-09-24T13:18:04.327Z,8.98
2022-09-24T13:20:31.381Z,10.80
2022-09-24T13:23:20.945Z,11.60
2022-09-24T13:25:58.342Z,9.20
2022-09-24T13:28:38.242Z,8.77
2022-09-24T13:31:20.372Z,16.30
2022-09-24T13:33:49.349Z,8.68
2022-09-24T13:36:18.796Z,8.57
2022-09-24T13:38:52.209Z,12.38
2022-09-24T13:41:24.530Z,11.43
2022-09-24T13:44:03.298Z,8.85
2022-09-24T13:46:30.320Z,10.18
2022-09-24T13:49:00.104Z,8.95
2022-09-24T13:51:28.924Z,13.98
2022-09-24T13:53:55.430Z,7.57
2022-09-24T13:56:22.460Z,9.95
2022-09-24T13:58:51.283Z,11.77
2022-09-24T14:01:25.109Z,12.60
2022-09-24T14:03:53.626Z,13.23
2022-09-24T14:06:23.438Z,8.63
2022-09-24T14:08:51.512Z,7.18
2022-09-24T14:11:19.116Z,6.97
2022-09-24T14:13:48.530Z,5.35
2022-09-24T14:16:16.421Z,6.07
2022-09-24T14:18:42.959Z,9.95
2022-09-24T14:21:17.363Z,11.10
2022-09-24T14:23:52.914Z,7.75
2022-09-24T14:26:25.356Z,6.60
2022-09-24T14:28:52.079Z,6.72
2022-09-24T14:31:18.752Z,7.32
2022-09-24T14:33:45.389Z,9.77
2022-09-24T14:36:13.248Z,12.73
2022-09-24T14:38:51.235Z,9.60
2022-09-24T14:41:21.235Z,6.77
2022-09-24T14:43:50.470Z,7.22
2022-09-24T14:46:23.128Z,8.25
2022-09-24T14:48:51.085Z,7.35
2022-09-24T14:51:27.809Z,10.68
2022-09-24T14:54:17.470Z,6.63
2022-09-24T14:56:43.937Z,6.03
2022-09-24T14:59:14.533Z,7.70
2022-09-24T15:01:41.092Z,6.65
2022-09-24T15:04:16.184Z,5.43
2022-09-24T15:06:46.556Z,7.07
2022-09-24T15:09:23.548Z,9.43
2022-09-24T15:11:50.211Z,12.45
2022-09-24T15:14:16.732Z,7.28
2022-09-24T15:16:44.229Z,10.75
2022-09-24T15:19:15.501Z,10.27
2022-09-24T15:21:41.919Z,8.43
2022-09-24T15:24:08.379Z,8.07
2022-09-24T15:26:35.965Z,7.35
2022-09-24T15:29:02.799Z,10.65
2022-09-24T15:31:29.381Z,6.82
2022-09-24T15:33:58.890Z,7.65
2022-09-24T15:36:25.615Z,6.20
2022-09-24T15:38:52.759Z,9.45
2022-09-24T15:41:22.425Z,10.55
2022-09-24T15:43:50.269Z,7.78
2022-09-24T15:46:17.097Z,5.70
2022-09-24T15:48:44.183Z,6.82
2022-09-24T15:51:15.440Z,8.07
2022-09-24T15:53:42.350Z,5.25
2022-09-24T15:56:08.812Z,4.88
2022-09-24T15:58:35.258Z,8.98
2022-09-24T16:01:01.963Z,9.52
2022-09-24T16:03:29.559Z,8.68
2022-09-24T16:05:56.415Z,6.55
2022-09-24T16:08:23.347Z,6.18
2022-09-24T16:10:50.042Z,5.18
2022-09-24T16:13:16.961Z,6.95
2022-09-24T16:15:44.022Z,4.45
2022-09-24T16:18:12.650Z,8.88
2022-09-24T16:20:40.011Z,5.85
2022-09-24T16:23:07.037Z,6.78
2022-09-24T16:25:33.692Z,8.13
2022-09-24T16:28:00.188Z,6.85
2022-09-24T16:30:26.573Z,5.18
2022-09-24T16:32:53.029Z,5.38
2022-09-24T16:35:19.528Z,7.78
2022-09-24T16:37:45.940Z,8.30
2022-09-24T16:40:12.561Z,4.90
2022-09-24T16:42:39.248Z,9.60
2022-09-24T16:45:07.088Z,6.32
2022-09-24T16:47:33.653Z,9.15
2022-09-24T16:50:00.041Z,6.18
2022-09-24T16:52:26.498Z,8.52
2022-09-24T16:54:52.919Z,7.18
2022-09-24T16:57:19.372Z,5.30
2022-09-24T16:59:45.762Z,6.82
2022-09-24T17:02:12.423Z,8.45
2022-09-24T17:04:39.821Z,7.15
2022-09-24T17:07:06.589Z,3.13
2022-09-24T17:09:51.418Z,6.80
2022-09-24T17:12:18.092Z,6.30
2022-09-24T17:14:44.660Z,6.28
2022-09-24T17:17:11.046Z,7.85
2022-09-24T17:19:37.448Z,6.32
2022-09-24T17:22:03.869Z,7.05
2022-09-24T17:24:31.686Z,5.07
2022-09-24T17:26:58.353Z,7.68
2022-09-24T17:29:30.339Z,5.53
2022-09-24T17:31:57.928Z,4.57
2022-09-24T17:34:24.491Z,4.75
2022-09-24T17:36:51.253Z,5.45
2022-09-24T17:39:18.563Z,7.38
2022-09-24T17:41:45.083Z,5.18
2022-09-24T17:44:17.264Z,6.75
2022-09-24T17:46:43.814Z,3.45
2022-09-24T17:49:10.610Z,8.15
2022-09-24T17:51:37.263Z,4.65
2022-09-24T17:54:05.646Z,6.68
2022-09-24T17:56:33.045Z,8.50
2022-09-24T17:58:59.804Z,10.00
2022-09-24T18:01:33.455Z,7.97
2022-09-24T18:04:00.149Z,8.43
2022-09-24T18:06:32.036Z,9.27
2022-09-24T18:08:59.905Z,9.00
2022-09-24T18:11:30.820Z,9.10
2022-09-24T18:16:27.719Z,5.97
2022-09-24T18:18:54.372Z,6.88
2022-09-24T18:21:21.840Z,4.43
2022-09-24T18:23:48.442Z,7.28
2022-09-24T18:26:16.343Z,5.93
2022-09-24T18:28:47.832Z,7.35
2022-09-24T18:31:14.778Z,5.22
2022-09-24T18:33:42.070Z,8.05
2022-09-24T18:36:09.877Z,7.65
2022-09-24T18:38:36.232Z,6.32
2022-09-24T18:41:07.502Z,7.13
2022-09-24T18:43:33.889Z,9.93
2022-09-24T18:46:04.347Z,5.22
2022-09-24T18:48:31.019Z,9.05
2022-09-24T18:50:57.795Z,9.05
2022-09-24T18:53:24.597Z,5.15
2022-09-24T18:55:51.186Z,7.20
2022-09-24T18:58:17.628Z,9.45
2022-09-24T19:00:49.755Z,8.45
2022-09-24T19:03:19.744Z,7.45
2022-09-24T19:05:50.171Z,4.95
2022-09-24T19:08:16.562Z,4.82
2022-09-24T19:10:42.943Z,14.88
2022-09-24T19:13:09.431Z,8.43
2022-09-24T19:15:36.648Z,10.25
2022-09-24T19:18:03.429Z,8.88
2022-09-24T19:20:30.919Z,4.07
2022-09-24T19:23:00.150Z,8.32
2022-09-24T19:25:27.399Z,6.28
2022-09-24T19:27:53.940Z,7.38
2022-09-24T19:30:20.822Z,5.72
2022-09-24T19:32:47.213Z,6.97
2022-09-24T19:35:13.917Z,7.65
2022-09-24T19:37:40.349Z,8.25
2022-09-24T19:40:07.176Z,9.40
2022-09-24T19:42:34.009Z,8.48
2022-09-24T19:45:00.329Z,10.60
2022-09-24T19:47:26.735Z,4.95
2022-09-24T19:49:53.057Z,4.57
2022-09-24T19:52:19.959Z,7.63
2022-09-24T19:54:49.392Z,6.40
2022-09-24T19:57:15.663Z,9.45
2022-09-24T19:59:42.010Z,7.53
2022-09-24T20:02:09.784Z,10.25
2022-09-24T20:04:36.220Z,10.95
2022-09-24T20:07:06.007Z,3.90
2022-09-24T20:09:32.563Z,6.07
2022-09-24T20:11:59.596Z,7.80
2022-09-24T20:14:28.226Z,7.18
2022-09-24T20:16:56.502Z,11.80
2022-09-24T20:19:22.788Z,9.75
2022-09-24T20:21:49.074Z,11.65
2022-09-24T20:24:15.800Z,7.57
2022-09-24T20:27:00.843Z,5.05
2022-09-24T20:29:27.275Z,11.15
2022-09-24T20:31:55.499Z,4.75
2022-09-24T20:34:23.591Z,10.15
2022-09-24T20:36:50.678Z,9.57
2022-09-24T20:39:17.494Z,9.15
2022-09-24T20:41:43.818Z,7.93
2022-09-24T20:44:10.237Z,10.60
2022-09-24T20:46:36.732Z,7.43
2022-09-24T20:49:03.071Z,3.72
2022-09-24T20:51:30.678Z,9.52
2022-09-24T20:53:58.519Z,6.70
2022-09-24T20:56:25.138Z,4.65
2022-09-24T20:58:52.916Z,8.52
2022-09-24T21:01:20.362Z,5.75
2022-09-24T21:03:49.897Z,5.80
2022-09-24T21:06:16.883Z,3.42
2022-09-24T21:08:44.250Z,3.70
2022-09-24T21:11:16.015Z,4.57
2022-09-24T21:13:44.553Z,1.92
2022-09-24T21:16:11.280Z,7.13
2022-09-24T21:18:40.601Z,6.85
2022-09-24T21:21:08.702Z,6.03
2022-09-24T21:23:36.100Z,4.40
2022-09-24T21:26:18.632Z,3.60
2022-09-24T21:28:48.794Z,2.85
2022-09-24T21:31:21.255Z,5.17
2022-09-24T21:33:48.952Z,2.28
2022-09-24T21:36:19.287Z,4.47
2022-09-24T21:38:54.113Z,2.60
2022-09-24T21:41:21.227Z,6.65
2022-09-24T21:43:47.577Z,6.18
2022-09-24T21:46:14.006Z,4.38
2022-09-24T21:48:40.375Z,3.55
2022-09-24T21:51:08.976Z,2.60
2022-09-24T21:53:35.773Z,5.22
2022-09-24T21:56:02.688Z,5.10
2022-09-24T21:58:31.672Z,4.13
2022-09-24T22:01:04.672Z,1.77
2022-09-24T22:03:31.864Z,3.08
2022-09-24T22:06:00.106Z,2.90
2022-09-24T22:08:30.526Z,1.42
2022-09-24T22:11:26.231Z,2.53
2022-09-24T22:13:52.723Z,3.83
2022-09-24T22:16:19.481Z,3.13
2022-09-24T22:18:45.909Z,1.65
2022-09-24T22:21:13.695Z,5.97
2022-09-24T22:23:40.327Z,1.35
2022-09-24T22:26:07.523Z,1.17
2022-09-24T22:28:34.212Z,5.40
2022-09-24T22:31:03.369Z,13.02
2022-09-24T22:33:48.682Z,2.83
2022-09-24T22:36:15.276Z,2.65
2022-09-24T22:38:42.019Z,1.48
2022-09-24T22:41:10.869Z,2.53
2022-09-24T22:43:37.648Z,1.88
2022-09-24T22:46:08.549Z,2.60
2022-09-24T22:48:35.567Z,1.30
2022-09-24T22:51:02.031Z,1.20
2022-09-24T22:53:28.463Z,1.70
2022-09-24T22:56:03.823Z,4.20
2022-09-24T22:58:30.769Z,1.85
2022-09-24T23:01:04.762Z,1.85
2022-09-24T23:03:31.394Z,1.52
2022-09-24T23:05:58.397Z,1.90
2022-09-24T23:08:24.695Z,4.97
2022-09-24T23:10:51.134Z,5.63
2022-09-24T23:13:17.553Z,1.40
2022-09-24T23:15:44.967Z,2.10
2022-09-24T23:18:11.242Z,4.82
2022-09-24T23:20:38.187Z,2.33
2022-09-24T23:23:04.748Z,1.83
2022-09-24T23:25:31.039Z,6.00
2022-09-24T23:27:57.488Z,2.08
2022-09-24T23:30:23.845Z,4.60
2022-09-24T23:32:50.189Z,1.85
2022-09-24T23:35:16.550Z,2.95
2022-09-24T23:37:42.823Z,3.50
2022-09-24T23:40:09.668Z,3.17
2022-09-24T23:42:36.004Z,3.00
2022-09-24T23:45:02.493Z,2.63
2022-09-24T23:47:32.697Z,3.72
2022-09-24T23:50:01.732Z,3.65
2022-09-24T23:52:28.352Z,4.10
2022-09-24T23:54:54.821Z,1.40
2022-09-24T23:57:21.100Z,3.83
2022-09-24T23:59:47.375Z,1.10
